Time;durP1;ratioP1;P1;durP2;ratioP2;P2;SDS_P1;SDS_P2;PMS_P1;PMS_P2;Temp;Humidity;BMP_temperature;BMP_pressure;BME280_temperature;BME280_humidity;BME280_pressure;Samples;Min_cycle;Max_cycle;Signal;HPM_P1;HPM_P2
2021/04/01 00:00:08;;;;;;;40.08;18.70;;;;;;;14.73;79.07;102011.91;6171372;23;20001;-83
2021/04/01 00:02:54;;;;;;;33.25;17.65;;;;;;;14.92;78.29;102006.66;6151996;23;20009;-84
2021/04/01 00:05:40;;;;;;;40.15;19.70;;;;;;;14.97;76.77;102004.66;6171321;23;20016;-83
2021/04/01 00:08:45;;;;;;;35.13;17.27;;;;;;;14.41;82.88;102001.75;6155369;23;20009;-84
2021/04/01 00:11:34;;;;;;;45.28;18.58;;;;;;;14.45;82.92;102000.69;6148139;23;20012;-84
2021/04/01 00:14:04;;;;;;;35.58;17.63;;;;;;;14.72;80.52;101999.53;6171421;23;20014;-84
2021/04/01 00:16:33;;;;;;;38.47;17.95;;;;;;;14.85;80.65;102005.19;6147797;23;20016;-84
2021/04/01 00:19:22;;;;;;;31.55;16.92;;;;;;;14.64;87.70;102008.78;6170699;23;20009;-84
2021/04/01 00:21:49;;;;;;;38.97;18.42;;;;;;;14.81;77.84;102014.25;6145540;23;20009;-83
2021/04/01 00:24:15;;;;;;;47.13;20.13;;;;;;;14.73;78.15;101995.09;6144822;23;20062;-83
2021/04/01 00:26:42;;;;;;;41.90;18.38;;;;;;;14.97;74.02;102012.66;6144147;23;20084;-84
2021/04/01 00:29:10;;;;;;;35.45;18.88;;;;;;;15.03;70.81;102006.19;6169168;23;20001;-84
2021/04/01 00:31:36;;;;;;;36.75;17.52;;;;;;;15.13;71.68;102004.84;6169209;23;20006;-83
2021/04/01 00:34:02;;;;;;;39.63;18.60;;;;;;;15.11;71.94;101997.84;6168292;23;20002;-83
2021/04/01 00:36:27;;;;;;;33.92;18.13;;;;;;;15.00;74.72;102003.63;6117623;23;20029;-83
2021/04/01 00:38:53;;;;;;;36.40;18.85;;;;;;;15.06;68.92;101983.88;6142191;23;20571;-83
2021/04/01 00:41:42;;;;;;;33.58;17.75;;;;;;;14.97;73.80;101998.47;6168046;23;20013;-84
2021/04/01 00:44:28;;;;;;;38.10;16.98;;;;;;;14.58;75.70;101993.94;6166485;23;20041;-84
2021/04/01 00:46:53;;;;;;;38.88;18.60;;;;;;;14.31;81.25;102001.28;6142183;23;20006;-85
2021/04/01 00:49:38;;;;;;;32.88;17.45;;;;;;;14.13;86.81;102005.53;6143148;23;20507;-85
2021/04/01 00:52:27;;;;;;;39.35;18.58;;;;;;;14.13;88.06;101996.72;6145350;23;20002;-84
2021/04/01 00:55:37;;;;;;;38.95;19.17;;;;;;;13.89;93.23;101995.91;6169826;23;20463;-85
2021/04/01 00:58:18;;;;;;;36.92;18.05;;;;;;;14.12;90.27;101995.84;6177363;23;20013;-84
2021/04/01 01:00:45;;;;;;;38.53;17.95;;;;;;;14.16;88.30;101994.81;6104333;23;20081;-83
2021/04/01 01:03:10;;;;;;;41.47;19.23;;;;;;;14.41;75.85;101989.31;6166641;23;20005;-83
2021/04/01 01:05:36;;;;;;;39.22;19.65;;;;;;;14.53;78.21;101981.78;6166986;23;20064;-83
2021/04/01 01:08:24;;;;;;;45.03;20.27;;;;;;;14.67;75.75;101993.56;6168489;23;20044;-84
2021/04/01 01:10:49;;;;;;;43.92;18.60;;;;;;;14.61;75.46;101972.53;6170748;23;20013;-82
2021/04/01 01:13:15;;;;;;;39.90;18.67;;;;;;;14.65;76.52;101974.13;6167430;23;20012;-82
2021/04/01 01:15:40;;;;;;;40.10;17.65;;;;;;;14.72;77.73;101986.25;6140633;23;20016;-82
2021/04/01 01:18:06;;;;;;;29.83;16.40;;;;;;;14.75;74.77;101980.75;6162090;23;20033;-82
2021/04/01 01:20:32;;;;;;;39.33;19.65;;;;;;;14.93;70.39;101996.88;6160036;23;20009;-82
2021/04/01 01:22:58;;;;;;;37.95;18.05;;;;;;;14.86;71.84;101982.09;6160497;23;20017;-82
2021/04/01 01:25:23;;;;;;;35.60;17.10;;;;;;;14.85;69.44;101991.00;6152424;23;20006;-82
2021/04/01 01:27:51;;;;;;;43.03;20.80;;;;;;;14.91;66.64;101988.06;6133833;23;20001;-82
2021/04/01 01:30:19;;;;;;;41.22;19.75;;;;;;;14.79;66.60;101989.50;6131795;23;20356;-82
2021/04/01 01:32:47;;;;;;;40.15;19.05;;;;;;;14.49;70.66;101979.25;6133202;23;20030;-82
2021/04/01 01:35:23;;;;;;;39.58;19.33;;;;;;;14.28;73.06;101979.25;6131760;23;20006;-84
2021/04/01 01:37:52;;;;;;;;;;;;;;;14.15;80.18;101981.53;6162544;23;20017;-84
2021/04/01 01:40:19;;;;;;;48.13;19.08;;;;;;;14.32;80.81;101980.88;6164577;23;19931;-86
2021/04/01 01:42:46;;;;;;;37.85;18.17;;;;;;;14.24;77.18;101982.03;6163693;23;20005;-85
2021/04/01 01:45:12;;;;;;;39.20;19.67;;;;;;;14.33;73.39;101983.44;6163204;23;20002;-84
2021/04/01 01:47:37;;;;;;;41.58;19.60;;;;;;;14.30;74.67;101982.72;6163407;23;20002;-84
2021/04/01 01:50:04;;;;;;;35.72;18.67;;;;;;;14.25;78.13;101988.22;6161750;23;20009;-83
2021/04/01 01:52:29;;;;;;;42.88;20.73;;;;;;;13.94;74.38;101984.16;6162659;23;20009;-83
2021/04/01 01:54:55;;;;;;;46.97;21.65;;;;;;;13.84;75.40;101984.59;6165558;23;20096;-83
2021/04/01 01:57:20;;;;;;;42.10;20.92;;;;;;;13.94;74.83;101983.28;6163678;23;20028;-83
2021/04/01 01:59:45;;;;;;;45.92;22.13;;;;;;;13.96;75.05;101997.41;6168702;23;20039;-83
2021/04/01 02:02:11;;;;;;;41.70;18.95;;;;;;;13.80;78.03;101983.84;6168830;23;20343;-85
2021/04/01 02:04:36;;;;;;;49.25;20.23;;;;;;;13.62;78.04;101982.78;6172632;23;20032;-85
2021/04/01 02:07:01;;;;;;;42.00;19.00;;;;;;;13.63;79.70;101984.50;6162034;23;20069;-85
2021/04/01 02:09:27;;;;;;;48.22;21.55;;;;;;;13.68;76.51;101990.50;6162290;23;20021;-83
2021/04/01 02:11:52;;;;;;;44.63;20.42;;;;;;;13.71;76.13;101981.56;6162366;23;19997;-82
2021/04/01 02:14:17;;;;;;;41.95;21.05;;;;;;;13.58;79.81;101985.63;6160403;23;20028;-82
2021/04/01 02:16:43;;;;;;;38.83;18.77;;;;;;;13.43;81.52;101987.94;6160741;23;20060;-83
2021/04/01 02:19:08;;;;;;;37.97;18.60;;;;;;;13.31;84.28;101992.84;6161191;23;20016;-83
2021/04/01 02:21:33;;;;;;;47.38;21.98;;;;;;;13.28;82.17;101992.97;6163188;23;20009;-83
2021/04/01 02:23:59;;;;;;;45.40;21.95;;;;;;;13.40;80.24;101997.78;6164041;23;20009;-82
2021/04/01 02:26:24;;;;;;;50.13;22.75;;;;;;;13.46;77.56;101990.50;6168391;23;20012;-82
2021/04/01 02:28:49;;;;;;;46.20;22.25;;;;;;;13.30;79.96;102005.25;6143540;23;20268;-83
2021/04/01 02:31:19;;;;;;;46.42;22.85;;;;;;;13.23;80.33;102005.53;6164417;23;20025;-82
2021/04/01 02:33:45;;;;;;;52.83;22.60;;;;;;;13.28;80.22;102001.78;6173612;23;20008;-82
2021/04/01 02:36:10;;;;;;;56.35;23.52;;;;;;;13.23;79.30;102001.09;6166844;23;20022;-82
2021/04/01 02:38:35;;;;;;;50.45;23.58;;;;;;;13.16;79.04;102007.53;6162507;23;20011;-83
2021/04/01 02:41:01;;;;;;;49.17;22.67;;;;;;;13.19;78.69;102016.22;6164813;23;20024;-83
2021/04/01 02:43:32;;;;;;;50.25;22.33;;;;;;;13.28;78.03;102019.50;6163152;23;20092;-83
2021/04/01 02:45:58;;;;;;;44.90;21.42;;;;;;;13.33;78.72;102020.22;6162934;23;20006;-82
2021/04/01 02:48:24;;;;;;;45.15;21.67;;;;;;;13.20;78.54;102020.63;6164340;23;20007;-82
2021/04/01 02:50:49;;;;;;;50.20;22.45;;;;;;;13.26;77.69;102024.03;6162763;23;20033;-83
2021/04/01 02:53:15;;;;;;;48.60;21.98;;;;;;;13.17;78.90;102019.88;6164458;23;20001;-83
2021/04/01 02:55:40;;;;;;;45.80;21.80;;;;;;;13.10;78.71;102034.28;6162849;23;20001;-82
2021/04/01 02:58:06;;;;;;;48.90;23.58;;;;;;;13.08;79.07;102020.22;6162115;23;20016;-82
2021/04/01 03:00:33;;;;;;;48.60;24.00;;;;;;;13.17;78.41;102027.84;6164625;23;20037;-83
2021/04/01 03:03:04;;;;;;;47.50;21.90;;;;;;;13.06;78.69;102025.56;6162727;23;20005;-82
2021/04/01 03:05:29;;;;;;;45.33;20.75;;;;;;;13.04;78.66;102024.75;6191901;23;20068;-82
2021/04/01 03:07:55;;;;;;;46.25;20.15;;;;;;;12.94;79.50;102033.97;6168898;23;20029;-83
2021/04/01 03:10:20;;;;;;;47.63;20.48;;;;;;;12.99;79.49;102028.50;6164495;23;20009;-83
2021/04/01 03:12:46;;;;;;;45.90;21.02;;;;;;;13.04;78.67;102031.84;6164625;23;20028;-83
2021/04/01 03:15:12;;;;;;;43.53;22.48;;;;;;;13.08;78.59;102031.69;6164803;23;20009;-83
2021/04/01 03:17:39;;;;;;;47.22;22.40;;;;;;;13.05;79.57;102034.47;6164068;23;20335;-83
2021/04/01 03:20:06;;;;;;;47.10;20.83;;;;;;;13.00;79.57;102032.88;6165574;23;20009;-83
2021/04/01 03:22:31;;;;;;;47.15;21.67;;;;;;;13.04;78.76;102030.06;6166880;23;20009;-83
2021/04/01 03:24:57;;;;;;;49.15;21.52;;;;;;;13.15;78.21;102035.88;6166642;23;20012;-83
2021/04/01 03:27:22;;;;;;;49.90;21.85;;;;;;;13.09;78.66;102046.69;6132392;23;20040;-83
2021/04/01 03:30:06;;;;;;;48.67;20.77;;;;;;;13.03;79.35;102041.59;6132100;23;20068;-82
2021/04/01 03:32:37;;;;;;;55.83;22.33;;;;;;;13.11;79.13;102038.69;6134018;23;20660;-82
2021/04/01 03:35:09;;;;;;;45.47;19.73;;;;;;;13.07;78.13;102035.28;6134397;23;20002;-81
2021/04/01 03:37:35;;;;;;;44.38;20.17;;;;;;;13.03;78.47;102033.63;6132103;23;20029;-82
2021/04/01 03:40:00;;;;;;;46.30;20.42;;;;;;;12.89;80.04;102034.13;6133453;23;20002;-82
2021/04/01 03:42:27;;;;;;;47.25;20.50;;;;;;;12.66;80.75;102032.28;6133973;23;20538;-82
2021/04/01 03:44:53;;;;;;;49.17;21.38;;;;;;;12.50;82.19;102030.19;6134031;23;20084;-82
2021/04/01 03:47:19;;;;;;;44.65;20.20;;;;;;;12.49;84.33;102033.75;6134648;23;20711;-82
2021/04/01 03:49:44;;;;;;;40.92;18.67;;;;;;;12.27;85.99;102026.53;6135602;23;20013;-83
2021/04/01 03:52:10;;;;;;;42.15;21.35;;;;;;;11.91;89.08;102025.91;6135442;23;20029;-84
2021/04/01 03:54:35;;;;;;;43.90;19.73;;;;;;;11.79;90.94;102021.81;6135315;23;20010;-83
2021/04/01 03:57:01;;;;;;;48.67;20.02;;;;;;;11.84;90.87;102021.69;6135373;23;20025;-84
2021/04/01 03:59:34;;;;;;;39.72;19.95;;;;;;;11.96;89.62;102020.47;6133279;23;20005;-83
2021/04/01 04:02:49;;;;;;;43.35;22.00;;;;;;;11.96;89.65;102024.00;6132728;23;20006;-83
2021/04/01 04:13:08;;;;;;;57.78;21.70;;;;;;;11.37;96.67;102030.13;6047164;23;20007;-84
2021/04/01 04:15:33;;;;;;;43.55;20.83;;;;;;;11.26;97.55;102028.72;6045682;23;20011;-85
2021/04/01 04:17:58;;;;;;;47.42;20.25;;;;;;;11.49;96.49;102030.69;6045336;23;20086;-84
2021/04/01 04:20:24;;;;;;;48.08;21.48;;;;;;;11.54;95.07;102034.91;6045626;23;20030;-84
2021/04/01 04:22:52;;;;;;;43.92;20.92;;;;;;;11.44;97.72;102038.75;6021434;23;20019;-84
2021/04/01 04:25:18;;;;;;;42.83;19.27;;;;;;;11.25;99.90;102030.50;6048061;23;20011;-83
2021/04/01 04:30:28;;;;;;;50.55;21.27;;;;;;;11.45;97.48;102027.28;6043985;23;20018;-83
2021/04/01 04:32:55;;;;;;;42.08;20.90;;;;;;;11.20;99.13;102031.53;6044161;23;20003;-83
2021/04/01 04:35:20;;;;;;;41.30;19.50;;;;;;;11.20;100.00;102036.81;6043882;23;20985;-83
2021/04/01 04:37:46;;;;;;;45.80;20.45;;;;;;;11.35;99.71;102037.25;6043795;23;20020;-82
2021/04/01 04:40:12;;;;;;;37.30;19.73;;;;;;;11.17;100.00;102048.34;6043943;23;20800;-82
2021/04/01 04:42:38;;;;;;;45.00;20.50;;;;;;;11.55;97.93;102039.31;6044372;23;20011;-82
2021/04/01 04:45:05;;;;;;;53.80;22.80;;;;;;;11.04;100.00;102039.88;6045847;23;20521;-84
2021/04/01 04:47:31;;;;;;;44.72;20.15;;;;;;;11.21;100.00;102028.84;6046243;23;20089;-84
2021/04/01 04:49:56;;;;;;;47.65;22.30;;;;;;;11.04;100.00;102042.50;6134958;23;20009;-84
2021/04/01 04:52:22;;;;;;;45.97;21.48;;;;;;;11.12;100.00;102024.66;6132595;23;20058;-84
2021/04/01 04:54:47;;;;;;;48.80;22.42;;;;;;;11.44;99.02;102036.09;6131562;23;20008;-84
2021/04/01 04:57:48;;;;;;;43.90;20.30;;;;;;;11.58;98.96;102041.00;6132653;23;20033;-81
2021/04/01 05:00:37;;;;;;;43.53;21.55;;;;;;;11.86;95.67;102051.69;6130088;23;20016;-82
2021/04/01 05:05:37;;;;;;;55.38;21.92;;;;;;;11.61;97.02;102062.97;6133731;23;20017;-83
2021/04/01 05:08:03;;;;;;;45.00;21.00;;;;;;;11.58;96.85;102060.41;6131837;23;19998;-83
2021/04/01 05:10:28;;;;;;;47.10;21.73;;;;;;;11.12;100.00;102063.47;6131070;23;20005;-84
2021/04/01 05:13:08;;;;;;;43.28;21.20;;;;;;;11.18;100.00;102059.81;6131807;23;20022;-84
2021/04/01 05:15:47;;;;;;;43.50;21.10;;;;;;;11.10;100.00;102060.03;6132729;23;20006;-83
2021/04/01 05:18:17;;;;;;;49.85;20.92;;;;;;;11.06;100.00;102064.53;6132010;23;20013;-84
2021/04/01 05:20:46;;;;;;;41.92;19.95;;;;;;;11.02;100.00;102070.81;6132697;23;20384;-83
2021/04/01 05:23:27;;;;;;;38.72;18.35;;;;;;;11.10;100.00;102074.13;6129958;23;20006;-83
2021/04/01 05:26:05;;;;;;;48.78;21.00;;;;;;;11.50;98.98;102065.06;6132598;23;20010;-83
2021/04/01 05:28:35;;;;;;;48.63;20.50;;;;;;;11.12;100.00;102060.84;6133389;23;20005;-84
2021/04/01 05:31:03;;;;;;;49.63;21.23;;;;;;;11.07;100.00;102060.97;6134139;23;20061;-84
2021/04/01 05:33:34;;;;;;;49.33;21.40;;;;;;;11.63;99.63;102062.91;6133239;23;20013;-82
2021/04/01 05:36:01;;;;;;;49.47;21.23;;;;;;;11.91;96.79;102076.25;6131001;23;20031;-84
2021/04/01 05:38:27;;;;;;;47.13;20.67;;;;;;;11.75;97.46;102072.31;6132198;23;20002;-84
2021/04/01 05:40:52;;;;;;;49.70;21.33;;;;;;;11.76;97.25;102068.72;6131702;23;20038;-84
2021/04/01 05:43:21;;;;;;;56.33;22.42;;;;;;;11.92;96.42;102072.69;6132053;23;20782;-84
2021/04/01 05:45:53;;;;;;;45.03;21.77;;;;;;;11.90;97.46;102070.09;6132208;23;20061;-84
2021/04/01 05:48:31;;;;;;;44.53;21.63;;;;;;;12.03;96.28;102081.16;6133207;23;20033;-84
2021/04/01 05:54:16;;;;;;;47.60;21.88;;;;;;;11.93;97.48;102085.88;6138309;23;20009;-84
2021/04/01 06:05:08;;;;;;;48.47;24.33;;;;;;;11.86;98.64;102088.75;6039980;23;20164;-84
2021/04/01 06:07:41;;;;;;;56.05;29.15;;;;;;;11.97;98.09;102104.34;6038814;23;20004;-87
2021/04/01 06:10:22;;;;;;;55.78;26.08;;;;;;;11.91;98.13;102103.59;6028162;23;20419;-86
2021/04/01 06:12:47;;;;;;;61.17;29.80;;;;;;;11.92;98.85;102099.16;6027769;23;20015;-86
2021/04/01 06:15:13;;;;;;;63.22;32.13;;;;;;;11.82;98.48;102089.75;6008812;23;20018;-89
2021/04/01 06:18:06;;;;;;;60.88;32.55;;;;;;;11.73;98.82;102080.28;6047886;23;20003;-91
2021/04/01 06:20:34;;;;;;;65.38;32.78;;;;;;;11.82;98.85;102085.34;6043098;23;20003;-85
2021/04/01 06:23:03;;;;;;;68.93;32.95;;;;;;;11.80;99.31;102104.81;6037247;23;20015;-86
2021/04/01 06:25:33;;;;;;;74.40;36.13;;;;;;;11.96;99.32;102122.03;6017152;23;20430;-84
2021/04/01 06:28:52;;;;;;;69.70;34.83;;;;;;;11.91;100.00;102139.84;6049196;23;20010;-82
2021/04/01 06:31:28;;;;;;;82.68;38.10;;;;;;;11.93;100.00;102125.59;6047093;23;20047;-83
2021/04/01 06:34:43;;;;;;;92.53;38.50;;;;;;;11.91;100.00;102123.94;5989848;24;20830;-85
2021/04/01 06:43:26;;;;;;;91.40;43.57;;;;;;;11.91;100.00;102145.13;6110023;23;20417;-84
2021/04/01 06:49:49;;;;;;;95.90;47.30;;;;;;;11.98;100.00;102154.63;6107129;23;20026;-82
2021/04/01 06:52:24;;;;;;;100.80;51.50;;;;;;;11.83;100.00;102150.63;6126826;23;20076;-82
2021/04/01 06:58:58;;;;;;;101.43;51.70;;;;;;;11.89;100.00;102146.94;6127830;23;20092;-84
2021/04/01 07:01:40;;;;;;;111.45;54.05;;;;;;;11.89;100.00;102153.09;6101652;23;20014;-83
2021/04/01 07:04:23;;;;;;;99.00;52.70;;;;;;;12.04;100.00;102162.38;6069458;23;20011;-83
2021/04/01 07:07:38;;;;;;;108.38;54.20;;;;;;;12.08;100.00;102161.38;6067381;23;20018;-84
2021/04/01 07:10:39;;;;;;;110.80;55.95;;;;;;;12.08;100.00;102166.69;6074318;23;20440;-83
2021/04/01 07:13:53;;;;;;;111.30;56.35;;;;;;;12.23;98.98;102169.78;6017998;23;20011;-86
2021/04/01 07:16:36;;;;;;;114.78;57.63;;;;;;;12.15;99.15;102176.22;5991020;23;20003;-83
2021/04/01 07:30:59;;;;;;;114.55;59.33;;;;;;;12.33;98.09;102197.75;6014027;23;20091;-85
2021/04/01 07:34:50;;;;;;;118.97;60.20;;;;;;;12.25;98.06;102192.72;6018644;23;20047;-86
2021/04/01 07:46:31;;;;;;;107.63;60.90;;;;;;;12.53;97.20;102205.97;5945138;24;20097;-82
2021/04/01 07:49:06;;;;;;;112.50;59.72;;;;;;;12.58;97.39;102203.19;5955446;24;20004;-81
2021/04/01 07:52:05;;;;;;;117.72;62.72;;;;;;;12.69;96.82;102207.22;6008122;23;20357;-85
2021/04/01 07:54:53;;;;;;;118.35;58.22;;;;;;;12.71;95.82;102215.16;6008790;23;20015;-80
2021/04/01 08:03:00;;;;;;;125.93;61.45;;;;;;;12.81;94.57;102210.44;6014927;23;20022;-82
2021/04/01 08:05:43;;;;;;;116.40;61.33;;;;;;;12.81;93.22;102207.78;5989559;23;20008;-83
2021/04/01 08:08:12;;;;;;;118.10;61.33;;;;;;;12.71;94.06;102223.13;6012401;23;20100;-82
2021/04/01 08:10:45;;;;;;;132.40;64.95;;;;;;;12.75;94.06;102213.25;6009507;23;20035;-82
2021/04/01 08:13:43;;;;;;;109.22;59.50;;;;;;;12.85;93.95;102215.59;6012808;23;20040;-84
2021/04/01 08:19:48;;;;;;;121.43;64.80;;;;;;;12.61;94.70;102221.66;6128138;23;20028;-83
2021/04/01 08:22:38;;;;;;;118.68;64.53;;;;;;;12.72;94.58;102232.81;6128937;23;20017;-84
2021/04/01 08:25:26;;;;;;;121.40;62.83;;;;;;;12.51;95.39;102229.03;6127675;23;20332;-82
2021/04/01 08:28:23;;;;;;;125.65;65.47;;;;;;;12.71;95.03;102233.72;6124311;23;20503;-80
2021/04/01 08:31:36;;;;;;;121.80;66.18;;;;;;;12.78;95.46;102229.09;6126244;23;20010;-81
2021/04/01 08:36:35;;;;;;;128.73;66.07;;;;;;;12.64;97.89;102240.13;6124502;23;20133;-79
2021/04/01 08:39:00;;;;;;;130.13;67.32;;;;;;;12.79;97.20;102241.44;6097528;23;20582;-80
2021/04/01 08:41:35;;;;;;;119.40;63.33;;;;;;;12.83;97.02;102245.72;6120336;23;20021;-81
2021/04/01 08:44:21;;;;;;;117.15;62.92;;;;;;;12.87;96.51;102234.97;6097993;23;20037;-80
2021/04/01 08:47:21;;;;;;;108.53;59.72;;;;;;;12.99;95.85;102246.97;6125170;23;20032;-83
2021/04/01 08:53:46;;;;;;;111.85;57.42;;;;;;;13.21;93.35;102244.50;6066544;23;20367;-84
2021/04/01 08:57:22;;;;;;;116.47;59.60;;;;;;;13.11;92.78;102246.59;6067757;23;20066;-83
2021/04/01 09:00:07;;;;;;;110.38;57.17;;;;;;;13.34;91.79;102245.84;6032993;23;20016;-82
2021/04/01 09:03:15;;;;;;;102.88;54.28;;;;;;;13.24;91.87;102256.81;6009722;23;20076;-82
2021/04/01 09:06:16;;;;;;;106.05;54.15;;;;;;;13.50;91.37;102258.59;6013866;23;20007;-84
2021/04/01 09:09:05;;;;;;;91.93;48.22;;;;;;;13.65;90.32;102260.72;6009101;23;20068;-83
2021/04/01 09:11:55;;;;;;;94.65;47.00;;;;;;;13.67;88.23;102262.41;6013025;23;20018;-83
2021/04/01 09:14:27;;;;;;;90.30;42.13;;;;;;;13.70;86.82;102267.66;6007692;23;20145;-82
2021/04/01 09:17:13;;;;;;;79.57;40.85;;;;;;;13.94;85.71;102263.22;6009047;23;20090;-85
2021/04/01 09:19:40;;;;;;;70.63;35.47;;;;;;;13.81;86.02;102269.06;6006465;23;20012;-79
2021/04/01 09:22:21;;;;;;;77.35;35.15;;;;;;;14.02;85.65;102268.28;6005749;23;20086;-81
2021/04/01 09:25:04;;;;;;;80.57;33.05;;;;;;;14.20;83.10;102264.94;6053206;23;20082;-81
2021/04/01 09:28:20;;;;;;;72.53;31.23;;;;;;;13.70;83.27;102262.31;6066688;23;20126;-83
2021/04/01 09:30:57;;;;;;;64.25;27.30;;;;;;;14.06;80.95;102272.56;6067101;23;20026;-84
2021/04/01 09:33:27;;;;;;;54.70;23.83;;;;;;;14.10;79.15;102268.84;6066813;23;20054;-82
2021/04/01 09:35:53;;;;;;;52.28;23.30;;;;;;;14.20;79.57;102272.91;6066553;23;20065;-82
2021/04/01 09:38:20;;;;;;;58.50;24.60;;;;;;;14.10;80.39;102273.31;6064020;23;20117;-81
2021/04/01 09:40:48;;;;;;;54.25;22.48;;;;;;;14.07;81.25;102276.09;6064262;23;20018;-82
2021/04/01 09:43:16;;;;;;;47.00;16.90;;;;;;;13.96;79.71;102284.47;6066276;23;20015;-82
2021/04/01 09:45:43;;;;;;;45.00;15.60;;;;;;;14.22;77.21;102281.72;6086306;23;20006;-81
2021/04/01 09:48:11;;;;;;;29.45;11.93;;;;;;;14.25;76.62;102278.91;6063929;23;20011;-81
2021/04/01 09:50:39;;;;;;;36.72;12.32;;;;;;;14.33;77.24;102285.75;6053355;23;20534;-81
2021/04/01 09:53:12;;;;;;;23.25;8.30;;;;;;;14.34;74.73;102293.69;6011490;23;20018;-80
2021/04/01 09:55:42;;;;;;;24.88;8.85;;;;;;;14.28;75.25;102296.56;6036992;23;20554;-84
2021/04/01 09:58:23;;;;;;;21.08;7.75;;;;;;;14.36;74.46;102290.97;6037483;23;20100;-82
2021/04/01 10:01:30;;;;;;;20.10;6.43;;;;;;;14.59;71.40;102308.75;6034587;23;20066;-84
2021/04/01 10:04:29;;;;;;;18.27;6.15;;;;;;;14.45;68.68;102311.91;6034212;23;20034;-82
2021/04/01 10:06:55;;;;;;;22.83;5.85;;;;;;;14.78;66.92;102301.81;5946474;24;20411;-82
2021/04/01 10:09:23;;;;;;;17.95;4.38;;;;;;;14.91;65.19;102287.09;5954857;24;20013;-82
2021/04/01 10:12:05;;;;;;;10.73;3.88;;;;;;;14.93;63.09;102300.34;5952205;24;20016;-82
2021/04/01 10:14:32;;;;;;;15.57;3.67;;;;;;;15.20;62.72;102301.88;5950552;24;20019;-81
2021/04/01 10:17:05;;;;;;;10.55;3.30;;;;;;;15.10;62.63;102307.66;5948833;24;20023;-82
2021/04/01 10:19:42;;;;;;;18.75;3.70;;;;;;;15.20;61.48;102312.53;5949030;24;20009;-82
2021/04/01 10:22:27;;;;;;;18.13;3.28;;;;;;;15.77;59.24;102305.75;5951819;24;20168;-82
2021/04/01 10:25:10;;;;;;;11.88;3.80;;;;;;;16.37;56.46;102302.25;5950314;24;20044;-81
2021/04/01 10:27:43;;;;;;;13.88;3.28;;;;;;;16.92;54.12;102303.25;5950355;24;20019;-82
2021/04/01 10:30:11;;;;;;;13.98;3.42;;;;;;;17.44;52.11;102283.78;5949524;24;20028;-80
2021/04/01 10:36:48;;;;;;;11.18;3.78;;;;;;;18.09;48.86;102298.25;5952297;24;20081;-83
2021/04/01 10:39:16;;;;;;;14.23;3.10;;;;;;;17.81;49.16;102312.19;5952803;24;20009;-80
2021/04/01 10:45:46;;;;;;;11.27;2.70;;;;;;;18.04;49.87;102313.69;6127471;23;20751;-84
2021/04/01 10:51:35;;;;;;;16.13;4.38;;;;;;;18.82;47.61;102325.53;6065687;23;20468;-82
2021/04/01 10:54:34;;;;;;;15.02;3.58;;;;;;;19.51;46.63;102321.59;6043349;23;20010;-84
2021/04/01 10:57:39;;;;;;;11.70;2.90;;;;;;;19.81;45.79;102325.19;6067144;23;20006;-84
2021/04/01 11:01:25;;;;;;;10.93;2.63;;;;;;;18.93;48.04;102333.00;6010487;23;20008;-83
2021/04/01 11:04:22;;;;;;;8.65;2.95;;;;;;;19.73;45.68;102334.63;5927025;24;20032;-82
2021/04/01 11:07:34;;;;;;;11.60;3.22;;;;;;;20.03;44.54;102323.88;5926951;24;20037;-82
2021/04/01 11:10:47;;;;;;;;;;;;;;;19.34;45.93;102334.19;5912583;24;20013;-83
2021/04/01 11:13:53;;;;;;;11.77;2.67;;;;;;;19.50;45.61;102336.81;5904466;24;19911;-82
2021/04/01 11:16:38;;;;;;;19.55;3.20;;;;;;;19.91;44.56;102325.50;5902319;24;20017;-82
2021/04/01 11:19:07;;;;;;;10.40;2.60;;;;;;;20.06;44.03;102332.59;5928508;24;20001;-84
2021/04/01 11:28:11;;;;;;;16.75;2.70;;;;;;;21.16;42.13;102344.47;6101539;23;20317;-82
2021/04/01 11:30:54;;;;;;;15.10;2.80;;;;;;;20.87;42.91;102334.75;6121518;23;20140;-82
2021/04/01 11:37:17;;;;;;;14.17;4.07;;;;;;;20.97;43.38;102348.47;6125493;23;20090;-82
2021/04/01 11:40:23;;;;;;;9.43;2.75;;;;;;;20.86;43.39;102358.06;6124190;23;20033;-82
2021/04/01 11:43:01;;;;;;;13.70;3.55;;;;;;;19.59;46.27;102355.09;6124163;23;20104;-81
2021/04/01 11:45:35;;;;;;;17.67;3.05;;;;;;;20.19;44.98;102351.53;6124283;23;20009;-83
2021/04/01 11:51:31;;;;;;;9.02;3.03;;;;;;;20.81;43.41;102360.19;6125775;23;20025;-83
2021/04/01 11:54:23;;;;;;;18.88;4.55;;;;;;;19.86;46.20;102357.97;6096800;23;20006;-83
2021/04/01 12:00:27;;;;;;;12.85;2.83;;;;;;;21.09;42.37;102370.03;6125092;23;20029;-82
2021/04/01 12:03:48;;;;;;;20.20;3.42;;;;;;;21.76;41.49;102358.50;6125818;23;20005;-81
2021/04/01 12:06:30;;;;;;;17.25;3.50;;;;;;;22.43;39.65;102370.88;6065190;23;20057;-81
2021/04/01 12:09:19;;;;;;;15.95;3.80;;;;;;;21.09;42.43;102364.66;6068909;23;20524;-84
2021/04/01 12:11:45;;;;;;;9.05;2.47;;;;;;;20.08;43.99;102362.03;6064860;23;20014;-79
2021/04/01 12:14:19;;;;;;;10.80;3.03;;;;;;;20.64;43.07;102380.06;6065888;23;20014;-84
2021/04/01 12:16:48;;;;;;;11.13;2.58;;;;;;;20.61;43.14;102360.59;6066428;23;20035;-79
2021/04/01 12:19:28;;;;;;;17.25;3.33;;;;;;;20.88;43.35;102369.59;6067459;23;20082;-82
2021/04/01 12:21:54;;;;;;;13.93;2.80;;;;;;;21.37;42.63;102365.56;6066841;23;20458;-82
2021/04/01 12:24:19;;;;;;;15.57;3.92;;;;;;;21.81;41.49;102364.44;6043424;23;20097;-84
2021/04/01 12:30:00;;;;;;;10.63;2.30;;;;;;;19.59;45.04;102392.66;6130264;23;20070;-81
2021/04/01 12:55:40;;;;;;;8.35;1.92;;;;;;;20.54;41.44;102383.44;6123245;23;20072;-82
2021/04/01 13:17:28;;;;;;;14.55;2.67;;;;;;;20.00;43.12;102399.22;6156236;23;20428;-82
2021/04/01 13:20:42;;;;;;;14.48;3.03;;;;;;;20.47;42.61;102401.72;6134840;23;20005;-79
2021/04/01 13:23:11;;;;;;;10.52;2.20;;;;;;;21.38;39.16;102381.59;6041461;23;20012;-82
2021/04/01 13:25:37;;;;;;;8.30;2.10;;;;;;;21.26;38.93;102398.50;6040429;23;20014;-82
2021/04/01 13:28:07;;;;;;;17.45;3.05;;;;;;;20.29;40.48;102400.16;6065045;23;20095;-82
2021/04/01 13:30:34;;;;;;;9.15;2.20;;;;;;;19.52;42.27;102410.00;6041704;23;20019;-82
2021/04/01 13:33:11;;;;;;;20.38;2.97;;;;;;;19.77;41.95;102390.69;6042417;23;20007;-83
2021/04/01 13:38:24;;;;;;;13.73;2.97;;;;;;;20.10;41.48;102405.75;6074236;23;20291;-81
2021/04/01 13:40:50;;;;;;;10.38;2.47;;;;;;;19.71;42.07;102400.94;6065930;23;20072;-81
2021/04/01 13:43:21;;;;;;;13.50;2.90;;;;;;;20.47;40.26;102395.50;6064565;23;20038;-81
2021/04/01 13:45:46;;;;;;;10.55;2.75;;;;;;;20.06;40.86;102396.16;6040965;23;20011;-83
2021/04/01 13:48:18;;;;;;;11.80;2.40;;;;;;;20.24;40.32;102403.13;6063554;23;20195;-82
2021/04/01 13:56:22;;;;;;;10.30;2.35;;;;;;;20.18;40.43;102398.97;6020238;23;20018;-82
2021/04/01 13:59:26;;;;;;;19.10;2.92;;;;;;;21.05;39.29;102400.78;5991668;23;20403;-82
2021/04/01 14:10:18;;;;;;;12.35;3.05;;;;;;;18.40;41.30;102404.53;6035716;23;20018;-82
2021/04/01 14:12:48;;;;;;;15.40;2.90;;;;;;;19.08;40.09;102408.03;6036775;23;20011;-82
2021/04/01 14:15:14;;;;;;;9.50;2.95;;;;;;;19.75;38.08;102400.66;6047741;23;20630;-83
2021/04/01 14:17:39;;;;;;;13.10;2.85;;;;;;;19.78;38.53;102405.84;6066482;23;20042;-82
2021/04/01 14:20:09;;;;;;;9.77;2.50;;;;;;;19.79;36.96;102412.94;6064940;23;20517;-82
2021/04/01 14:22:36;;;;;;;9.40;2.63;;;;;;;19.93;37.13;102409.47;6065778;23;20011;-82
2021/04/01 14:25:10;;;;;;;8.60;2.38;;;;;;;19.54;37.56;102420.66;6064272;23;20007;-82
2021/04/01 14:27:43;;;;;;;16.00;3.25;;;;;;;19.50;38.70;102413.72;6070431;23;20026;-83
2021/04/01 14:30:11;;;;;;;9.63;2.80;;;;;;;20.27;38.20;102405.59;6113875;23;20005;-83
2021/04/01 14:32:38;;;;;;;11.45;3.15;;;;;;;20.70;37.58;102405.69;6131614;23;20010;-82